sensor_id;sensor_type;location;lat;lon;timestamp;temperature;humidity
78366;HTU21D;67641;59.864;30.464;2024-02-28T00:02:20;14.43;53.10
78366;HTU21D;67641;59.864;30.464;2024-02-28T00:04:47;14.42;52.75
78366;HTU21D;67641;59.864;30.464;2024-02-28T00:07:13;14.39;52.92
78366;HTU21D;67641;59.864;30.464;2024-02-28T00:09:40;14.39;53.01
78366;HTU21D;67641;59.864;30.464;2024-02-28T00:12:06;14.33;52.92
78366;HTU21D;67641;59.864;30.464;2024-02-28T00:14:33;14.28;53.05
78366;HTU21D;67641;59.864;30.464;2024-02-28T00:17:00;14.26;53.01
78366;HTU21D;67641;59.864;30.464;2024-02-28T00:19:26;14.22;53.86
78366;HTU21D;67641;59.864;30.464;2024-02-28T00:21:53;14.18;53.99
78366;HTU21D;67641;59.864;30.464;2024-02-28T00:24:20;14.18;54.03
78366;HTU21D;67641;59.864;30.464;2024-02-28T00:26:46;14.19;54.02
78366;HTU21D;67641;59.864;30.464;2024-02-28T00:29:13;14.19;53.59
78366;HTU21D;67641;59.864;30.464;2024-02-28T00:31:40;14.15;53.52
78366;HTU21D;67641;59.864;30.464;2024-02-28T00:34:06;14.13;53.66
78366;HTU21D;67641;59.864;30.464;2024-02-28T00:36:35;14.13;54.69
78366;HTU21D;67641;59.864;30.464;2024-02-28T00:39:01;14.09;54.39
78366;HTU21D;67641;59.864;30.464;2024-02-28T00:41:28;14.06;53.92
78366;HTU21D;67641;59.864;30.464;2024-02-28T00:43:55;14.01;53.59
78366;HTU21D;67641;59.864;30.464;2024-02-28T00:46:22;14.00;53.15
78366;HTU21D;67641;59.864;30.464;2024-02-28T00:48:48;13.97;53.17
78366;HTU21D;67641;59.864;30.464;2024-02-28T00:51:15;13.97;53.30
78366;HTU21D;67641;59.864;30.464;2024-02-28T00:53:41;13.97;53.29
78366;HTU21D;67641;59.864;30.464;2024-02-28T00:56:09;13.97;52.54
78366;HTU21D;67641;59.864;30.464;2024-02-28T00:58:36;13.96;52.24
78366;HTU21D;67641;59.864;30.464;2024-02-28T01:01:03;13.93;52.46
78366;HTU21D;67641;59.864;30.464;2024-02-28T01:03:29;13.94;51.63
78366;HTU21D;67641;59.864;30.464;2024-02-28T01:05:56;13.90;51.80
78366;HTU21D;67641;59.864;30.464;2024-02-28T01:08:27;13.91;51.62
78366;HTU21D;67641;59.864;30.464;2024-02-28T01:10:53;13.89;51.79
78366;HTU21D;67641;59.864;30.464;2024-02-28T01:13:20;13.86;52.58
78366;HTU21D;67641;59.864;30.464;2024-02-28T01:15:47;13.88;52.86
78366;HTU21D;67641;59.864;30.464;2024-02-28T01:18:13;13.82;52.58
78366;HTU21D;67641;59.864;30.464;2024-02-28T01:20:40;13.83;52.46
78366;HTU21D;67641;59.864;30.464;2024-02-28T01:23:06;13.83;52.71
78366;HTU21D;67641;59.864;30.464;2024-02-28T01:25:33;13.82;53.36
78366;HTU21D;67641;59.864;30.464;2024-02-28T01:27:59;13.80;53.20
78366;HTU21D;67641;59.864;30.464;2024-02-28T01:30:26;13.81;52.63
78366;HTU21D;67641;59.864;30.464;2024-02-28T01:32:53;13.80;53.41
78366;HTU21D;67641;59.864;30.464;2024-02-28T01:35:20;13.78;53.74
78366;HTU21D;67641;59.864;30.464;2024-02-28T01:37:46;13.76;53.50
78366;HTU21D;67641;59.864;30.464;2024-02-28T01:40:13;13.73;52.97
78366;HTU21D;67641;59.864;30.464;2024-02-28T01:42:40;13.70;52.95
78366;HTU21D;67641;59.864;30.464;2024-02-28T01:45:07;13.70;53.39
78366;HTU21D;67641;59.864;30.464;2024-02-28T01:47:36;13.70;52.30
78366;HTU21D;67641;59.864;30.464;2024-02-28T01:50:04;13.69;53.64
78366;HTU21D;67641;59.864;30.464;2024-02-28T01:52:31;13.67;52.70
78366;HTU21D;67641;59.864;30.464;2024-02-28T01:54:59;13.68;52.67
78366;HTU21D;67641;59.864;30.464;2024-02-28T01:57:25;13.68;52.85
78366;HTU21D;67641;59.864;30.464;2024-02-28T01:59:53;13.66;51.01
78366;HTU21D;67641;59.864;30.464;2024-02-28T02:02:21;13.67;51.05
78366;HTU21D;67641;59.864;30.464;2024-02-28T02:04:48;13.67;51.30
78366;HTU21D;67641;59.864;30.464;2024-02-28T02:07:14;13.66;51.51
78366;HTU21D;67641;59.864;30.464;2024-02-28T02:09:41;13.64;52.30
78366;HTU21D;67641;59.864;30.464;2024-02-28T02:12:08;13.63;50.63
78366;HTU21D;67641;59.864;30.464;2024-02-28T02:14:34;13.60;50.37
78366;HTU21D;67641;59.864;30.464;2024-02-28T02:17:01;13.58;50.02
78366;HTU21D;67641;59.864;30.464;2024-02-28T02:19:28;13.56;49.91
78366;HTU21D;67641;59.864;30.464;2024-02-28T02:21:58;13.54;50.10
78366;HTU21D;67641;59.864;30.464;2024-02-28T02:24:24;13.54;49.32
78366;HTU21D;67641;59.864;30.464;2024-02-28T02:27:00;13.48;50.12
78366;HTU21D;67641;59.864;30.464;2024-02-28T02:29:27;13.46;51.02
78366;HTU21D;67641;59.864;30.464;2024-02-28T02:31:54;13.45;50.48
78366;HTU21D;67641;59.864;30.464;2024-02-28T02:34:21;13.43;49.49
78366;HTU21D;67641;59.864;30.464;2024-02-28T02:36:48;13.43;49.98
78366;HTU21D;67641;59.864;30.464;2024-02-28T02:39:14;13.43;49.62
78366;HTU21D;67641;59.864;30.464;2024-02-28T02:41:41;13.39;50.22
78366;HTU21D;67641;59.864;30.464;2024-02-28T02:44:08;13.38;48.87
78366;HTU21D;67641;59.864;30.464;2024-02-28T02:46:34;13.37;48.73
78366;HTU21D;67641;59.864;30.464;2024-02-28T02:49:01;13.36;48.72
78366;HTU21D;67641;59.864;30.464;2024-02-28T02:51:28;13.35;49.34
78366;HTU21D;67641;59.864;30.464;2024-02-28T02:53:54;13.35;48.82
78366;HTU21D;67641;59.864;30.464;2024-02-28T02:56:21;13.35;48.38
78366;HTU21D;67641;59.864;30.464;2024-02-28T02:58:47;13.33;48.82
78366;HTU21D;67641;59.864;30.464;2024-02-28T03:01:14;13.32;48.81
78366;HTU21D;67641;59.864;30.464;2024-02-28T03:03:41;13.31;47.38
78366;HTU21D;67641;59.864;30.464;2024-02-28T03:06:07;13.30;46.63
78366;HTU21D;67641;59.864;30.464;2024-02-28T03:08:36;13.31;47.86
78366;HTU21D;67641;59.864;30.464;2024-02-28T03:11:03;13.29;48.50
78366;HTU21D;67641;59.864;30.464;2024-02-28T03:13:30;13.27;48.41
78366;HTU21D;67641;59.864;30.464;2024-02-28T03:15:57;13.26;48.37
78366;HTU21D;67641;59.864;30.464;2024-02-28T03:18:23;13.26;48.47
78366;HTU21D;67641;59.864;30.464;2024-02-28T03:20:50;13.26;49.30
78366;HTU21D;67641;59.864;30.464;2024-02-28T03:23:16;13.23;49.86
78366;HTU21D;67641;59.864;30.464;2024-02-28T03:25:43;13.23;49.95
78366;HTU21D;67641;59.864;30.464;2024-02-28T03:28:10;13.21;50.31
78366;HTU21D;67641;59.864;30.464;2024-02-28T03:30:36;13.20;50.72
78366;HTU21D;67641;59.864;30.464;2024-02-28T03:33:03;13.21;50.18
78366;HTU21D;67641;59.864;30.464;2024-02-28T03:35:29;13.19;49.13
78366;HTU21D;67641;59.864;30.464;2024-02-28T03:37:56;13.17;48.14
78366;HTU21D;67641;59.864;30.464;2024-02-28T03:40:22;13.17;49.31
78366;HTU21D;67641;59.864;30.464;2024-02-28T03:42:49;13.16;46.87
78366;HTU21D;67641;59.864;30.464;2024-02-28T03:45:16;13.16;46.20
78366;HTU21D;67641;59.864;30.464;2024-02-28T03:47:42;13.17;46.58
78366;HTU21D;67641;59.864;30.464;2024-02-28T03:50:09;13.18;44.87
78366;HTU21D;67641;59.864;30.464;2024-02-28T03:52:36;13.21;44.37
78366;HTU21D;67641;59.864;30.464;2024-02-28T03:55:02;13.22;43.25
78366;HTU21D;67641;59.864;30.464;2024-02-28T03:57:29;13.23;43.82
78366;HTU21D;67641;59.864;30.464;2024-02-28T03:59:56;13.22;44.61
78366;HTU21D;67641;59.864;30.464;2024-02-28T04:02:22;13.24;44.32
78366;HTU21D;67641;59.864;30.464;2024-02-28T04:04:49;13.25;44.54
78366;HTU21D;67641;59.864;30.464;2024-02-28T04:07:16;13.25;44.77
78366;HTU21D;67641;59.864;30.464;2024-02-28T04:09:42;13.26;44.83
78366;HTU21D;67641;59.864;30.464;2024-02-28T04:12:09;13.26;44.67
78366;HTU21D;67641;59.864;30.464;2024-02-28T04:14:37;13.29;44.39
78366;HTU21D;67641;59.864;30.464;2024-02-28T04:17:05;13.31;44.49
78366;HTU21D;67641;59.864;30.464;2024-02-28T04:19:34;13.34;44.24
78366;HTU21D;67641;59.864;30.464;2024-02-28T04:22:03;13.38;44.35
78366;HTU21D;67641;59.864;30.464;2024-02-28T04:24:30;13.44;44.57
78366;HTU21D;67641;59.864;30.464;2024-02-28T04:26:57;13.47;45.89
78366;HTU21D;67641;59.864;30.464;2024-02-28T04:29:25;13.51;44.94
78366;HTU21D;67641;59.864;30.464;2024-02-28T04:31:52;13.52;45.71
78366;HTU21D;67641;59.864;30.464;2024-02-28T04:34:19;13.59;45.25
78366;HTU21D;67641;59.864;30.464;2024-02-28T04:36:45;13.66;44.96
78366;HTU21D;67641;59.864;30.464;2024-02-28T04:39:12;13.83;44.54
78366;HTU21D;67641;59.864;30.464;2024-02-28T04:41:38;14.15;42.77
78366;HTU21D;67641;59.864;30.464;2024-02-28T04:44:05;14.52;40.96
78366;HTU21D;67641;59.864;30.464;2024-02-28T04:46:32;14.88;39.81
78366;HTU21D;67641;59.864;30.464;2024-02-28T04:48:59;15.21;38.98
78366;HTU21D;67641;59.864;30.464;2024-02-28T04:51:26;15.54;38.14
78366;HTU21D;67641;59.864;30.464;2024-02-28T04:53:52;15.81;37.45
78366;HTU21D;67641;59.864;30.464;2024-02-28T04:56:19;16.32;35.73
78366;HTU21D;67641;59.864;30.464;2024-02-28T04:58:45;16.76;34.01
78366;HTU21D;67641;59.864;30.464;2024-02-28T05:01:12;17.20;33.30
78366;HTU21D;67641;59.864;30.464;2024-02-28T05:03:39;17.76;32.15
78366;HTU21D;67641;59.864;30.464;2024-02-28T05:06:05;18.17;31.38
78366;HTU21D;67641;59.864;30.464;2024-02-28T05:08:32;18.47;31.95
78366;HTU21D;67641;59.864;30.464;2024-02-28T05:10:58;18.84;31.83
78366;HTU21D;67641;59.864;30.464;2024-02-28T05:13:25;19.11;30.48
78366;HTU21D;67641;59.864;30.464;2024-02-28T05:15:52;19.26;30.56
78366;HTU21D;67641;59.864;30.464;2024-02-28T05:18:18;19.22;31.05
78366;HTU21D;67641;59.864;30.464;2024-02-28T05:20:45;19.32;30.71
78366;HTU21D;67641;59.864;30.464;2024-02-28T05:23:12;19.47;30.82
78366;HTU21D;67641;59.864;30.464;2024-02-28T05:25:38;19.74;30.88
78366;HTU21D;67641;59.864;30.464;2024-02-28T05:28:05;20.26;30.39
78366;HTU21D;67641;59.864;30.464;2024-02-28T05:30:32;20.75;28.90
78366;HTU21D;67641;59.864;30.464;2024-02-28T05:32:58;21.15;27.88
78366;HTU21D;67641;59.864;30.464;2024-02-28T05:35:25;21.68;27.44
78366;HTU21D;67641;59.864;30.464;2024-02-28T05:37:55;22.16;25.97
78366;HTU21D;67641;59.864;30.464;2024-02-28T05:40:21;22.49;25.00
78366;HTU21D;67641;59.864;30.464;2024-02-28T05:42:48;22.82;24.74
78366;HTU21D;67641;59.864;30.464;2024-02-28T05:45:14;22.54;24.60
78366;HTU21D;67641;59.864;30.464;2024-02-28T05:47:41;22.77;24.49
78366;HTU21D;67641;59.864;30.464;2024-02-28T05:50:09;22.96;24.79
78366;HTU21D;67641;59.864;30.464;2024-02-28T05:52:36;23.18;25.34
78366;HTU21D;67641;59.864;30.464;2024-02-28T05:55:03;23.31;25.04
78366;HTU21D;67641;59.864;30.464;2024-02-28T05:57:29;23.43;25.46
78366;HTU21D;67641;59.864;30.464;2024-02-28T05:59:56;23.67;25.69
78366;HTU21D;67641;59.864;30.464;2024-02-28T06:02:22;23.91;25.41
78366;HTU21D;67641;59.864;30.464;2024-02-28T06:04:49;24.24;24.99
78366;HTU21D;67641;59.864;30.464;2024-02-28T06:07:15;24.27;24.91
78366;HTU21D;67641;59.864;30.464;2024-02-28T06:09:42;24.40;24.61
78366;HTU21D;67641;59.864;30.464;2024-02-28T06:12:09;24.55;24.02
78366;HTU21D;67641;59.864;30.464;2024-02-28T06:14:35;24.70;24.49
78366;HTU21D;67641;59.864;30.464;2024-02-28T06:17:02;24.98;23.98
78366;HTU21D;67641;59.864;30.464;2024-02-28T06:19:29;25.01;23.95
78366;HTU21D;67641;59.864;30.464;2024-02-28T06:21:55;25.30;23.70
78366;HTU21D;67641;59.864;30.464;2024-02-28T06:24:22;25.46;22.88
78366;HTU21D;67641;59.864;30.464;2024-02-28T06:26:49;25.81;22.71
78366;HTU21D;67641;59.864;30.464;2024-02-28T06:29:15;26.17;22.39
78366;HTU21D;67641;59.864;30.464;2024-02-28T06:31:42;26.25;21.45
78366;HTU21D;67641;59.864;30.464;2024-02-28T06:34:09;26.35;21.69
78366;HTU21D;67641;59.864;30.464;2024-02-28T06:36:35;26.62;21.31
78366;HTU21D;67641;59.864;30.464;2024-02-28T06:39:02;26.52;21.56
78366;HTU21D;67641;59.864;30.464;2024-02-28T06:41:29;26.41;21.50
78366;HTU21D;67641;59.864;30.464;2024-02-28T06:43:56;26.34;19.83
78366;HTU21D;67641;59.864;30.464;2024-02-28T06:46:22;26.52;19.27
78366;HTU21D;67641;59.864;30.464;2024-02-28T06:48:49;26.65;19.60
78366;HTU21D;67641;59.864;30.464;2024-02-28T06:51:19;26.76;20.44
78366;HTU21D;67641;59.864;30.464;2024-02-28T06:53:46;26.98;20.59
78366;HTU21D;67641;59.864;30.464;2024-02-28T06:56:12;27.54;19.76
78366;HTU21D;67641;59.864;30.464;2024-02-28T06:58:39;27.84;19.32
78366;HTU21D;67641;59.864;30.464;2024-02-28T07:01:06;27.96;18.33
78366;HTU21D;67641;59.864;30.464;2024-02-28T07:03:33;27.82;17.38
78366;HTU21D;67641;59.864;30.464;2024-02-28T07:05:59;27.71;17.87
78366;HTU21D;67641;59.864;30.464;2024-02-28T07:08:26;27.86;18.19
78366;HTU21D;67641;59.864;30.464;2024-02-28T07:10:52;27.74;17.93
78366;HTU21D;67641;59.864;30.464;2024-02-28T07:13:20;27.59;17.16
78366;HTU21D;67641;59.864;30.464;2024-02-28T07:15:47;27.50;17.35
78366;HTU21D;67641;59.864;30.464;2024-02-28T07:18:15;27.60;16.72
78366;HTU21D;67641;59.864;30.464;2024-02-28T07:20:41;27.39;16.42
78366;HTU21D;67641;59.864;30.464;2024-02-28T07:23:08;27.65;16.74
78366;HTU21D;67641;59.864;30.464;2024-02-28T07:25:35;27.90;16.99
78366;HTU21D;67641;59.864;30.464;2024-02-28T07:28:02;28.05;15.88
78366;HTU21D;67641;59.864;30.464;2024-02-28T07:30:31;28.02;15.82
78366;HTU21D;67641;59.864;30.464;2024-02-28T07:32:58;28.08;16.68
78366;HTU21D;67641;59.864;30.464;2024-02-28T07:35:24;28.12;17.43
78366;HTU21D;67641;59.864;30.464;2024-02-28T07:37:51;28.26;16.38
78366;HTU21D;67641;59.864;30.464;2024-02-28T07:40:18;28.10;16.43
78366;HTU21D;67641;59.864;30.464;2024-02-28T07:42:45;27.72;16.22
78366;HTU21D;67641;59.864;30.464;2024-02-28T07:45:12;27.59;16.29
78366;HTU21D;67641;59.864;30.464;2024-02-28T07:47:39;27.81;16.19
78366;HTU21D;67641;59.864;30.464;2024-02-28T07:50:07;28.03;16.36
78366;HTU21D;67641;59.864;30.464;2024-02-28T07:52:33;27.97;16.09
78366;HTU21D;67641;59.864;30.464;2024-02-28T07:55:01;27.95;18.10
78366;HTU21D;67641;59.864;30.464;2024-02-28T07:57:28;27.99;17.91
78366;HTU21D;67641;59.864;30.464;2024-02-28T07:59:54;27.70;19.04
78366;HTU21D;67641;59.864;30.464;2024-02-28T08:02:22;27.76;18.93
78366;HTU21D;67641;59.864;30.464;2024-02-28T08:04:48;28.06;19.38
78366;HTU21D;67641;59.864;30.464;2024-02-28T08:07:16;27.56;19.07
78366;HTU21D;67641;59.864;30.464;2024-02-28T08:09:43;27.41;18.87
78366;HTU21D;67641;59.864;30.464;2024-02-28T08:12:09;26.99;19.41
78366;HTU21D;67641;59.864;30.464;2024-02-28T08:14:36;26.97;21.19
78366;HTU21D;67641;59.864;30.464;2024-02-28T08:17:03;27.06;20.64
78366;HTU21D;67641;59.864;30.464;2024-02-28T08:19:29;26.83;20.93
78366;HTU21D;67641;59.864;30.464;2024-02-28T08:21:56;26.55;21.46
78366;HTU21D;67641;59.864;30.464;2024-02-28T08:24:22;26.62;21.69
78366;HTU21D;67641;59.864;30.464;2024-02-28T08:26:49;26.61;21.13
78366;HTU21D;67641;59.864;30.464;2024-02-28T08:29:15;26.58;21.69
78366;HTU21D;67641;59.864;30.464;2024-02-28T08:31:45;26.03;21.99
78366;HTU21D;67641;59.864;30.464;2024-02-28T08:34:12;26.07;23.57
78366;HTU21D;67641;59.864;30.464;2024-02-28T08:36:38;26.09;24.14
78366;HTU21D;67641;59.864;30.464;2024-02-28T08:39:05;25.99;26.16
78366;HTU21D;67641;59.864;30.464;2024-02-28T08:41:33;25.79;27.88
78366;HTU21D;67641;59.864;30.464;2024-02-28T08:44:00;25.57;29.65
78366;HTU21D;67641;59.864;30.464;2024-02-28T08:46:27;25.45;30.45
78366;HTU21D;67641;59.864;30.464;2024-02-28T08:48:54;25.52;29.98
78366;HTU21D;67641;59.864;30.464;2024-02-28T08:51:21;25.31;30.19
78366;HTU21D;67641;59.864;30.464;2024-02-28T08:53:47;25.39;31.64
78366;HTU21D;67641;59.864;30.464;2024-02-28T08:56:14;25.29;33.63
78366;HTU21D;67641;59.864;30.464;2024-02-28T08:58:41;25.20;33.25
78366;HTU21D;67641;59.864;30.464;2024-02-28T09:01:08;25.38;31.57
78366;HTU21D;67641;59.864;30.464;2024-02-28T09:03:35;25.34;31.87
78366;HTU21D;67641;59.864;30.464;2024-02-28T09:06:01;25.35;32.15
78366;HTU21D;67641;59.864;30.464;2024-02-28T09:08:28;25.25;34.16
78366;HTU21D;67641;59.864;30.464;2024-02-28T09:10:55;24.66;37.90
78366;HTU21D;67641;59.864;30.464;2024-02-28T09:13:21;24.54;39.46
78366;HTU21D;67641;59.864;30.464;2024-02-28T09:15:48;24.53;40.06
78366;HTU21D;67641;59.864;30.464;2024-02-28T09:18:14;24.25;38.68
78366;HTU21D;67641;59.864;30.464;2024-02-28T09:20:41;24.06;39.08
78366;HTU21D;67641;59.864;30.464;2024-02-28T09:23:07;23.76;41.78
78366;HTU21D;67641;59.864;30.464;2024-02-28T09:25:34;23.70;41.36
78366;HTU21D;67641;59.864;30.464;2024-02-28T09:28:04;23.73;42.19
78366;HTU21D;67641;59.864;30.464;2024-02-28T09:30:31;23.84;41.55
78366;HTU21D;67641;59.864;30.464;2024-02-28T09:32:58;24.10;40.48
78366;HTU21D;67641;59.864;30.464;2024-02-28T09:35:25;24.32;39.72
78366;HTU21D;67641;59.864;30.464;2024-02-28T09:37:51;24.53;40.42
78366;HTU21D;67641;59.864;30.464;2024-02-28T09:40:18;24.38;40.59
78366;HTU21D;67641;59.864;30.464;2024-02-28T09:42:51;24.43;40.81
78366;HTU21D;67641;59.864;30.464;2024-02-28T09:45:20;24.39;40.78
78366;HTU21D;67641;59.864;30.464;2024-02-28T09:47:48;24.34;40.20
78366;HTU21D;67641;59.864;30.464;2024-02-28T09:50:15;24.58;40.35
78366;HTU21D;67641;59.864;30.464;2024-02-28T09:52:43;24.50;40.30
78366;HTU21D;67641;59.864;30.464;2024-02-28T09:55:10;24.56;40.68
78366;HTU21D;67641;59.864;30.464;2024-02-28T09:57:37;24.50;40.51
78366;HTU21D;67641;59.864;30.464;2024-02-28T10:00:05;24.38;41.31
78366;HTU21D;67641;59.864;30.464;2024-02-28T10:02:32;24.64;40.99
78366;HTU21D;67641;59.864;30.464;2024-02-28T10:05:00;24.62;40.78
78366;HTU21D;67641;59.864;30.464;2024-02-28T10:07:28;24.57;42.61
78366;HTU21D;67641;59.864;30.464;2024-02-28T10:09:55;24.83;41.17
78366;HTU21D;67641;59.864;30.464;2024-02-28T10:12:22;24.56;40.26
78366;HTU21D;67641;59.864;30.464;2024-02-28T10:14:51;24.45;40.75
78366;HTU21D;67641;59.864;30.464;2024-02-28T10:17:21;24.43;39.32
78366;HTU21D;67641;59.864;30.464;2024-02-28T10:19:48;24.32;40.60
78366;HTU21D;67641;59.864;30.464;2024-02-28T10:22:14;24.18;41.85
78366;HTU21D;67641;59.864;30.464;2024-02-28T10:24:41;24.63;40.75
78366;HTU21D;67641;59.864;30.464;2024-02-28T10:27:08;24.83;38.73
78366;HTU21D;67641;59.864;30.464;2024-02-28T10:29:34;24.97;39.42
78366;HTU21D;67641;59.864;30.464;2024-02-28T10:32:01;25.07;38.80
78366;HTU21D;67641;59.864;30.464;2024-02-28T10:34:29;24.95;39.37
78366;HTU21D;67641;59.864;30.464;2024-02-28T10:36:57;25.07;38.18
78366;HTU21D;67641;59.864;30.464;2024-02-28T10:39:24;25.18;38.23
78366;HTU21D;67641;59.864;30.464;2024-02-28T10:41:52;24.99;37.15
78366;HTU21D;67641;59.864;30.464;2024-02-28T10:44:20;24.90;37.83
78366;HTU21D;67641;59.864;30.464;2024-02-28T10:46:51;24.99;38.39
78366;HTU21D;67641;59.864;30.464;2024-02-28T10:49:18;24.60;37.43
78366;HTU21D;67641;59.864;30.464;2024-02-28T10:51:46;24.90;38.41
78366;HTU21D;67641;59.864;30.464;2024-02-28T10:54:15;25.05;37.50
78366;HTU21D;67641;59.864;30.464;2024-02-28T10:56:43;24.78;37.86
78366;HTU21D;67641;59.864;30.464;2024-02-28T10:59:11;24.66;39.21
78366;HTU21D;67641;59.864;30.464;2024-02-28T11:01:45;24.49;41.25
78366;HTU21D;67641;59.864;30.464;2024-02-28T11:04:13;24.41;40.65
78366;HTU21D;67641;59.864;30.464;2024-02-28T11:06:54;24.34;39.52
78366;HTU21D;67641;59.864;30.464;2024-02-28T11:09:28;24.39;39.36
78366;HTU21D;67641;59.864;30.464;2024-02-28T11:11:56;24.61;39.49
78366;HTU21D;67641;59.864;30.464;2024-02-28T11:14:23;24.59;38.62
78366;HTU21D;67641;59.864;30.464;2024-02-28T11:17:04;24.24;39.74
78366;HTU21D;67641;59.864;30.464;2024-02-28T11:19:32;24.30;41.33
78366;HTU21D;67641;59.864;30.464;2024-02-28T11:21:59;24.39;39.51
78366;HTU21D;67641;59.864;30.464;2024-02-28T11:24:31;24.19;40.39
78366;HTU21D;67641;59.864;30.464;2024-02-28T11:26:59;24.38;40.86
78366;HTU21D;67641;59.864;30.464;2024-02-28T11:29:27;24.28;41.76
78366;HTU21D;67641;59.864;30.464;2024-02-28T11:31:56;24.48;41.87
78366;HTU21D;67641;59.864;30.464;2024-02-28T11:34:23;24.55;41.26
78366;HTU21D;67641;59.864;30.464;2024-02-28T11:36:50;24.50;40.59
78366;HTU21D;67641;59.864;30.464;2024-02-28T11:39:17;24.62;39.30
78366;HTU21D;67641;59.864;30.464;2024-02-28T11:41:44;24.85;40.63
78366;HTU21D;67641;59.864;30.464;2024-02-28T11:44:18;25.23;38.44
78366;HTU21D;67641;59.864;30.464;2024-02-28T11:46:46;25.37;37.85
78366;HTU21D;67641;59.864;30.464;2024-02-28T11:49:13;25.27;38.47
78366;HTU21D;67641;59.864;30.464;2024-02-28T11:51:41;24.93;39.50
78366;HTU21D;67641;59.864;30.464;2024-02-28T11:54:08;24.89;39.64
78366;HTU21D;67641;59.864;30.464;2024-02-28T11:56:37;24.53;40.43
78366;HTU21D;67641;59.864;30.464;2024-02-28T11:59:04;24.01;41.36
78366;HTU21D;67641;59.864;30.464;2024-02-28T12:01:35;23.32;44.32
78366;HTU21D;67641;59.864;30.464;2024-02-28T12:04:03;23.06;43.22
78366;HTU21D;67641;59.864;30.464;2024-02-28T12:06:34;23.08;45.00
78366;HTU21D;67641;59.864;30.464;2024-02-28T12:09:08;23.16;45.05
78366;HTU21D;67641;59.864;30.464;2024-02-28T12:11:36;23.24;43.51
78366;HTU21D;67641;59.864;30.464;2024-02-28T12:14:04;23.52;42.32
78366;HTU21D;67641;59.864;30.464;2024-02-28T12:16:33;23.54;43.42
78366;HTU21D;67641;59.864;30.464;2024-02-28T12:19:00;23.73;42.14
78366;HTU21D;67641;59.864;30.464;2024-02-28T12:21:26;23.83;42.41
78366;HTU21D;67641;59.864;30.464;2024-02-28T12:23:53;23.89;41.83
78366;HTU21D;67641;59.864;30.464;2024-02-28T12:26:20;23.89;41.43
78366;HTU21D;67641;59.864;30.464;2024-02-28T12:28:46;23.76;42.94
78366;HTU21D;67641;59.864;30.464;2024-02-28T12:31:13;23.76;42.16
78366;HTU21D;67641;59.864;30.464;2024-02-28T12:33:40;23.79;42.59
78366;HTU21D;67641;59.864;30.464;2024-02-28T12:36:06;23.57;42.85
78366;HTU21D;67641;59.864;30.464;2024-02-28T12:38:33;23.13;44.15
78366;HTU21D;67641;59.864;30.464;2024-02-28T12:41:00;22.68;44.76
78366;HTU21D;67641;59.864;30.464;2024-02-28T12:43:30;22.50;45.05
78366;HTU21D;67641;59.864;30.464;2024-02-28T12:45:58;22.21;44.64
78366;HTU21D;67641;59.864;30.464;2024-02-28T12:48:24;22.02;46.09
78366;HTU21D;67641;59.864;30.464;2024-02-28T12:50:51;22.06;46.51
78366;HTU21D;67641;59.864;30.464;2024-02-28T12:53:18;22.47;45.15
78366;HTU21D;67641;59.864;30.464;2024-02-28T12:55:45;23.53;42.73
78366;HTU21D;67641;59.864;30.464;2024-02-28T12:58:11;23.89;40.94
78366;HTU21D;67641;59.864;30.464;2024-02-28T13:00:38;24.34;39.63
78366;HTU21D;67641;59.864;30.464;2024-02-28T13:03:04;24.78;39.23
78366;HTU21D;67641;59.864;30.464;2024-02-28T13:05:32;24.53;39.60
78366;HTU21D;67641;59.864;30.464;2024-02-28T13:07:59;24.55;38.85
78366;HTU21D;67641;59.864;30.464;2024-02-28T13:10:25;24.45;39.30
78366;HTU21D;67641;59.864;30.464;2024-02-28T13:12:52;24.86;37.57
78366;HTU21D;67641;59.864;30.464;2024-02-28T13:15:19;25.00;37.30
78366;HTU21D;67641;59.864;30.464;2024-02-28T13:17:45;24.74;37.91
78366;HTU21D;67641;59.864;30.464;2024-02-28T13:20:16;24.48;37.59
78366;HTU21D;67641;59.864;30.464;2024-02-28T13:22:42;24.63;38.22
78366;HTU21D;67641;59.864;30.464;2024-02-28T13:25:13;24.99;37.53
78366;HTU21D;67641;59.864;30.464;2024-02-28T13:27:41;25.37;36.32
78366;HTU21D;67641;59.864;30.464;2024-02-28T13:30:11;25.07;37.12
78366;HTU21D;67641;59.864;30.464;2024-02-28T13:32:38;24.71;37.98
78366;HTU21D;67641;59.864;30.464;2024-02-28T13:35:05;24.46;38.08
78366;HTU21D;67641;59.864;30.464;2024-02-28T13:37:31;24.32;37.75
78366;HTU21D;67641;59.864;30.464;2024-02-28T13:39:59;24.43;37.79
78366;HTU21D;67641;59.864;30.464;2024-02-28T13:42:26;24.42;37.81
78366;HTU21D;67641;59.864;30.464;2024-02-28T13:44:52;24.51;37.50
78366;HTU21D;67641;59.864;30.464;2024-02-28T13:47:20;24.38;37.51
78366;HTU21D;67641;59.864;30.464;2024-02-28T13:49:47;24.51;37.69
78366;HTU21D;67641;59.864;30.464;2024-02-28T13:52:16;24.43;38.29
78366;HTU21D;67641;59.864;30.464;2024-02-28T13:54:42;24.15;38.25
78366;HTU21D;67641;59.864;30.464;2024-02-28T13:57:09;24.27;39.43
78366;HTU21D;67641;59.864;30.464;2024-02-28T13:59:36;24.28;39.30
78366;HTU21D;67641;59.864;30.464;2024-02-28T14:02:02;24.16;39.26
78366;HTU21D;67641;59.864;30.464;2024-02-28T14:04:29;24.15;39.27
78366;HTU21D;67641;59.864;30.464;2024-02-28T14:10:31;23.72;40.93
78366;HTU21D;67641;59.864;30.464;2024-02-28T14:12:58;24.19;39.70
78366;HTU21D;67641;59.864;30.464;2024-02-28T14:15:25;24.20;39.54
78366;HTU21D;67641;59.864;30.464;2024-02-28T14:17:52;23.99;39.74
78366;HTU21D;67641;59.864;30.464;2024-02-28T14:20:19;23.79;39.46
78366;HTU21D;67641;59.864;30.464;2024-02-28T14:22:45;24.01;39.75
78366;HTU21D;67641;59.864;30.464;2024-02-28T14:25:17;23.91;39.91
78366;HTU21D;67641;59.864;30.464;2024-02-28T14:27:45;23.58;40.40
78366;HTU21D;67641;59.864;30.464;2024-02-28T14:30:13;23.77;39.52
78366;HTU21D;67641;59.864;30.464;2024-02-28T14:32:42;23.72;40.20
78366;HTU21D;67641;59.864;30.464;2024-02-28T14:35:09;23.58;40.77
78366;HTU21D;67641;59.864;30.464;2024-02-28T14:37:38;23.45;41.29
78366;HTU21D;67641;59.864;30.464;2024-02-28T14:40:09;23.20;41.15
78366;HTU21D;67641;59.864;30.464;2024-02-28T14:42:37;22.91;42.10
78366;HTU21D;67641;59.864;30.464;2024-02-28T14:45:06;22.71;42.77
78366;HTU21D;67641;59.864;30.464;2024-02-28T14:47:33;22.70;43.71
78366;HTU21D;67641;59.864;30.464;2024-02-28T14:50:03;22.79;41.88
78366;HTU21D;67641;59.864;30.464;2024-02-28T14:52:30;22.69;42.04
78366;HTU21D;67641;59.864;30.464;2024-02-28T14:54:56;22.41;42.81
78366;HTU21D;67641;59.864;30.464;2024-02-28T14:57:23;22.11;43.29
78366;HTU21D;67641;59.864;30.464;2024-02-28T14:59:50;21.52;45.20
78366;HTU21D;67641;59.864;30.464;2024-02-28T15:02:16;21.08;46.25
78366;HTU21D;67641;59.864;30.464;2024-02-28T15:04:43;20.68;45.38
78366;HTU21D;67641;59.864;30.464;2024-02-28T15:07:09;20.34;48.18